createdAt,value
2022-12-29T00:00:07.263Z,100061.09
2022-12-29T00:02:36.449Z,100055.00
2022-12-29T00:05:03.463Z,100054.28
2022-12-29T00:07:29.978Z,100038.06
2022-12-29T00:09:56.511Z,100037.47
2022-12-29T00:12:23.099Z,100036.78
2022-12-29T00:15:08.413Z,100022.28
2022-12-29T00:17:34.987Z,100029.31
2022-12-29T00:20:20.243Z,100023.34
2022-12-29T00:23:05.064Z,100023.44
2022-12-29T00:26:00.844Z,100015.66
2022-12-29T00:28:45.875Z,100013.84
2022-12-29T00:31:31.543Z,100015.25
2022-12-29T00:34:17.191Z,100005.72
2022-12-29T00:36:45.320Z,100011.53
2022-12-29T00:39:35.365Z,100000.31
2022-12-29T00:42:41.480Z,99995.88
2022-12-29T00:45:08.252Z,99992.03
2022-12-29T00:47:34.779Z,99986.19
2022-12-29T00:50:01.237Z,99997.56
2022-12-29T00:52:27.753Z,99995.22
2022-12-29T00:54:54.337Z,99985.81
2022-12-29T00:57:20.887Z,99981.81
2022-12-29T00:59:47.402Z,99973.31
2022-12-29T01:02:13.977Z,99987.13
2022-12-29T01:04:40.509Z,99983.69
2022-12-29T01:07:08.428Z,99960.13
2022-12-29T01:09:53.372Z,99966.25
2022-12-29T01:12:41.744Z,99974.38
2022-12-29T01:15:10.485Z,99972.63
2022-12-29T01:17:39.604Z,99981.09
2022-12-29T01:20:07.055Z,99965.44
2022-12-29T01:22:33.815Z,99970.31
2022-12-29T01:25:00.519Z,99961.53
2022-12-29T01:27:27.262Z,99962.22
2022-12-29T01:29:53.790Z,99957.59
2022-12-29T01:32:20.361Z,99956.53
2022-12-29T01:34:46.877Z,99945.13
2022-12-29T01:37:13.485Z,99946.75
2022-12-29T01:39:43.392Z,99951.75
2022-12-29T01:42:18.306Z,99959.81
2022-12-29T01:45:09.561Z,99942.56
2022-12-29T01:47:39.491Z,99931.25
2022-12-29T01:50:19.731Z,99936.28
2022-12-29T01:52:55.724Z,99939.38
2022-12-29T01:55:23.363Z,99934.38
2022-12-29T01:57:53.871Z,99931.69
2022-12-29T02:00:20.671Z,99928.34
2022-12-29T02:02:52.394Z,99923.88
2022-12-29T02:05:33.299Z,99940.38
2022-12-29T02:08:01.341Z,99944.56
2022-12-29T02:10:32.780Z,99944.75
2022-12-29T02:13:00.328Z,99933.53
2022-12-29T02:15:55.543Z,99938.72
2022-12-29T02:18:27.341Z,99922.97
2022-12-29T02:21:08.742Z,99936.59
2022-12-29T02:23:47.376Z,99934.88
2022-12-29T02:26:37.326Z,99942.47
2022-12-29T02:29:34.856Z,99933.66
2022-12-29T02:32:30.518Z,99927.63
2022-12-29T02:35:29.410Z,99927.81
2022-12-29T02:38:22.652Z,99912.41
2022-12-29T02:41:09.762Z,99892.41
2022-12-29T02:43:46.583Z,99911.31
2022-12-29T02:46:40.998Z,99905.91
2022-12-29T02:49:16.939Z,99898.97
2022-12-29T02:51:56.281Z,99918.81
2022-12-29T02:54:43.731Z,99909.16
2022-12-29T02:57:32.585Z,99897.69
2022-12-29T03:00:08.766Z,99895.84
2022-12-29T03:02:57.275Z,99892.91
2022-12-29T03:05:30.086Z,99891.13
2022-12-29T03:08:29.770Z,99892.16
2022-12-29T03:11:28.544Z,99888.63
2022-12-29T03:14:21.447Z,99896.56
2022-12-29T03:17:20.227Z,99886.19
2022-12-29T03:19:51.943Z,99885.25
2022-12-29T03:22:31.729Z,99873.06
2022-12-29T03:25:12.092Z,99867.91
2022-12-29T03:28:02.016Z,99867.09
2022-12-29T03:30:31.662Z,99865.41
2022-12-29T03:33:04.727Z,99873.22
2022-12-29T03:35:36.535Z,99861.81
2022-12-29T03:38:27.067Z,99862.81
2022-12-29T03:40:57.862Z,99866.09
2022-12-29T03:43:25.459Z,99878.16
2022-12-29T03:45:51.986Z,99871.38
2022-12-29T03:48:18.645Z,99880.00
2022-12-29T03:50:45.279Z,99858.41
2022-12-29T03:53:11.818Z,99856.69
2022-12-29T03:55:40.473Z,99845.41
2022-12-29T03:58:06.978Z,99844.72
2022-12-29T04:00:33.668Z,99834.53
2022-12-29T04:03:01.195Z,99834.44
2022-12-29T04:05:27.825Z,99836.84
2022-12-29T04:07:54.379Z,99832.44
2022-12-29T04:10:20.854Z,99814.41
2022-12-29T04:12:47.706Z,99825.72
2022-12-29T04:15:14.340Z,99815.25
2022-12-29T04:17:40.876Z,99803.88
2022-12-29T04:20:39.903Z,99801.91
2022-12-29T04:23:07.530Z,99814.72
2022-12-29T04:25:34.479Z,99806.84
2022-12-29T04:28:01.526Z,99819.19
2022-12-29T04:30:28.169Z,99813.00
2022-12-29T04:32:55.530Z,99819.88
2022-12-29T04:35:22.081Z,99819.88
2022-12-29T04:37:48.717Z,99818.00
2022-12-29T04:40:15.259Z,99801.38
2022-12-29T04:42:41.797Z,99816.06
2022-12-29T04:45:09.042Z,99811.50
2022-12-29T04:47:38.066Z,99808.66
2022-12-29T04:50:05.716Z,99821.56
2022-12-29T04:52:32.285Z,99826.84
2022-12-29T04:54:58.847Z,99822.66
2022-12-29T04:57:25.580Z,99837.41
2022-12-29T04:59:52.128Z,99846.97
2022-12-29T05:02:19.056Z,99833.22
2022-12-29T05:04:45.833Z,99834.91
2022-12-29T05:07:12.671Z,99838.06
2022-12-29T05:09:39.394Z,99830.38
2022-12-29T05:12:06.808Z,99832.88
2022-12-29T05:14:34.155Z,99848.28
2022-12-29T05:17:00.756Z,99836.00
2022-12-29T05:19:27.273Z,99873.91
2022-12-29T05:21:54.079Z,99861.84
2022-12-29T05:24:20.759Z,99880.97
2022-12-29T05:26:47.241Z,99873.16
2022-12-29T05:29:19.000Z,99878.53
2022-12-29T05:31:45.622Z,99884.06
2022-12-29T05:34:12.757Z,99889.28
2022-12-29T05:36:40.188Z,99890.19
2022-12-29T05:39:08.867Z,99888.63
2022-12-29T05:41:36.170Z,99892.25
2022-12-29T05:44:03.025Z,99888.81
2022-12-29T05:46:30.107Z,99902.81
2022-12-29T05:48:56.766Z,99898.63
2022-12-29T05:51:23.384Z,99903.09
2022-12-29T05:53:50.153Z,99902.41
2022-12-29T05:56:16.917Z,99903.50
2022-12-29T05:58:44.087Z,99901.34
2022-12-29T06:01:10.628Z,99914.59
2022-12-29T06:03:37.371Z,99922.00
2022-12-29T06:06:05.327Z,99915.38
2022-12-29T06:08:31.860Z,99918.03
2022-12-29T06:10:58.336Z,99925.97
2022-12-29T06:13:25.045Z,99933.84
2022-12-29T06:15:52.138Z,99930.56
2022-12-29T06:18:20.248Z,99934.28
2022-12-29T06:20:47.310Z,99938.72
2022-12-29T06:23:14.297Z,99944.91
2022-12-29T06:25:41.218Z,99957.13
2022-12-29T06:28:07.979Z,99953.69
2022-12-29T06:30:37.293Z,99958.72
2022-12-29T06:33:03.857Z,99961.41
2022-12-29T06:35:30.437Z,99973.34
2022-12-29T06:37:56.987Z,99969.00
2022-12-29T06:40:26.189Z,99968.75
2022-12-29T06:42:52.739Z,99955.88
2022-12-29T06:45:19.248Z,99950.69
2022-12-29T06:47:45.817Z,99958.38
2022-12-29T06:50:12.355Z,99953.19
2022-12-29T06:52:38.878Z,99960.81
2022-12-29T06:55:05.745Z,99962.50
2022-12-29T06:57:34.445Z,99961.47
2022-12-29T07:00:01.794Z,99964.81
2022-12-29T07:02:28.416Z,99960.34
2022-12-29T07:04:54.999Z,99956.00
2022-12-29T07:07:21.763Z,99959.50
2022-12-29T07:09:48.385Z,99968.88
2022-12-29T07:12:15.489Z,99962.03
2022-12-29T07:14:43.489Z,99984.31
2022-12-29T07:17:10.652Z,99970.41
2022-12-29T07:19:37.274Z,99973.75
2022-12-29T07:22:03.837Z,99989.13
2022-12-29T07:24:30.986Z,99996.09
2022-12-29T07:26:57.748Z,99980.59
2022-12-29T07:29:24.375Z,99996.28
2022-12-29T07:31:50.933Z,100003.22
2022-12-29T07:34:17.424Z,100001.56
2022-12-29T07:36:47.437Z,100005.09
2022-12-29T07:39:14.344Z,100007.81
2022-12-29T07:41:40.910Z,100012.88
2022-12-29T07:44:09.700Z,100012.78
2022-12-29T07:46:54.325Z,100023.31
2022-12-29T07:49:23.365Z,100019.66
2022-12-29T07:51:49.947Z,100027.34
2022-12-29T07:54:19.334Z,100022.16
2022-12-29T07:56:46.763Z,100025.69
2022-12-29T07:59:13.268Z,100031.94
2022-12-29T08:01:40.052Z,100037.41
2022-12-29T08:04:09.395Z,100020.81
2022-12-29T08:06:36.161Z,100021.56
2022-12-29T08:09:11.391Z,100026.94
2022-12-29T08:11:41.583Z,100038.25
2022-12-29T08:14:08.389Z,100044.28
2022-12-29T08:16:35.312Z,100046.94
2022-12-29T08:19:02.599Z,100058.22
2022-12-29T08:21:29.649Z,100059.09
2022-12-29T08:23:56.914Z,100054.78
2022-12-29T08:26:23.515Z,100051.22
2022-12-29T08:28:53.600Z,100066.03
2022-12-29T08:31:20.172Z,100056.50
2022-12-29T08:33:46.735Z,100060.69
2022-12-29T08:36:13.949Z,100061.59
2022-12-29T08:38:40.503Z,100065.03
2022-12-29T08:41:07.060Z,100073.66
2022-12-29T08:43:33.747Z,100071.91
2022-12-29T08:46:00.393Z,100072.84
2022-12-29T08:48:27.851Z,100071.06
2022-12-29T08:50:54.465Z,100081.47
2022-12-29T08:53:21.659Z,100059.94
2022-12-29T08:55:59.358Z,100076.41
2022-12-29T08:58:30.718Z,100071.16
2022-12-29T09:00:58.320Z,100075.44
2022-12-29T09:03:54.905Z,100089.34
2022-12-29T09:06:12.675Z,100088.50
2022-12-29T09:08:39.253Z,100088.50
2022-12-29T09:11:09.141Z,100096.03
2022-12-29T09:13:36.209Z,100094.25
2022-12-29T09:16:03.192Z,100084.47
2022-12-29T09:18:30.222Z,100100.84
2022-12-29T09:21:04.587Z,100100.59
2022-12-29T09:23:36.232Z,100093.47
2022-12-29T09:26:03.802Z,100094.81
2022-12-29T09:28:31.181Z,100105.31
2022-12-29T09:30:58.649Z,100098.81
2022-12-29T09:33:25.927Z,100101.78
2022-12-29T09:35:57.409Z,100109.81
2022-12-29T09:38:25.149Z,100098.72
2022-12-29T09:41:06.979Z,100099.66
2022-12-29T09:44:01.484Z,100106.47
2022-12-29T09:46:30.732Z,100107.34
2022-12-29T09:49:31.566Z,100102.56
2022-12-29T09:52:05.006Z,100097.56
2022-12-29T09:54:58.133Z,100101.91
2022-12-29T09:58:06.425Z,100105.25
2022-12-29T10:01:05.459Z,100102.50
2022-12-29T10:03:54.214Z,100095.69
2022-12-29T10:06:56.456Z,100108.03
2022-12-29T10:09:53.178Z,100110.63
2022-12-29T10:12:36.188Z,100094.13
2022-12-29T10:15:41.645Z,100104.25
2022-12-29T10:18:33.672Z,100100.75
2022-12-29T10:21:38.730Z,100108.47
2022-12-29T10:24:11.655Z,100117.16
2022-12-29T10:26:43.578Z,100121.59
2022-12-29T10:29:36.573Z,100108.69
2022-12-29T10:32:18.204Z,100127.63
2022-12-29T10:34:51.014Z,100119.00
2022-12-29T10:37:39.960Z,100121.59
2022-12-29T10:40:19.351Z,100120.59
2022-12-29T10:42:55.489Z,100138.59
2022-12-29T10:45:26.677Z,100139.75
2022-12-29T10:48:31.480Z,100146.66
2022-12-29T10:51:02.335Z,100139.75
2022-12-29T10:53:44.717Z,100143.97
2022-12-29T10:56:37.112Z,100150.94
2022-12-29T10:59:25.756Z,100163.75
2022-12-29T11:02:04.897Z,100155.03
2022-12-29T11:05:05.169Z,100163.59
2022-12-29T11:07:32.490Z,100158.41
2022-12-29T11:10:30.237Z,100163.66
2022-12-29T11:13:02.846Z,100167.03
2022-12-29T11:15:40.350Z,100154.06
2022-12-29T11:18:22.551Z,100166.94
2022-12-29T11:20:51.896Z,100187.72
2022-12-29T11:23:39.743Z,100178.00
2022-12-29T11:26:11.015Z,100170.38
2022-12-29T11:28:42.528Z,100191.78
2022-12-29T11:31:10.726Z,100175.09
2022-12-29T11:33:39.880Z,100188.06
2022-12-29T11:36:15.280Z,100181.97
2022-12-29T11:38:47.011Z,100171.41
2022-12-29T11:41:23.189Z,100193.03
2022-12-29T11:43:53.891Z,100206.16
2022-12-29T11:46:39.494Z,100198.47
2022-12-29T11:49:07.005Z,100200.13
2022-12-29T11:51:49.870Z,100202.69
2022-12-29T11:54:25.972Z,100202.69
2022-12-29T11:56:58.577Z,100204.34
2022-12-29T11:59:28.066Z,100204.19
2022-12-29T12:01:55.860Z,100198.84
2022-12-29T12:04:36.471Z,100212.91
2022-12-29T12:07:16.775Z,100215.28
2022-12-29T12:10:06.519Z,100210.22
2022-12-29T12:12:42.588Z,100207.03
2022-12-29T12:15:17.634Z,100214.84
2022-12-29T12:18:04.860Z,100212.16
2022-12-29T12:20:46.759Z,100208.78
2022-12-29T12:23:27.595Z,100225.47
2022-12-29T12:26:00.331Z,100218.28
2022-12-29T12:28:36.885Z,100231.41
2022-12-29T12:31:15.997Z,100223.59
2022-12-29T12:33:45.921Z,100240.88
2022-12-29T12:36:30.794Z,100236.59
2022-12-29T12:39:11.901Z,100251.34
2022-12-29T12:42:05.525Z,100237.53
2022-12-29T12:44:54.189Z,100242.09
2022-12-29T12:47:47.247Z,100242.06
2022-12-29T12:50:47.177Z,100247.06
2022-12-29T12:53:25.432Z,100242.06
2022-12-29T12:56:16.975Z,100250.81
2022-12-29T12:59:08.957Z,100244.88
2022-12-29T13:01:42.233Z,100252.50
2022-12-29T13:04:11.730Z,100245.41
2022-12-29T13:06:50.535Z,100251.25
2022-12-29T13:09:26.017Z,100254.66
2022-12-29T13:12:01.739Z,100259.00
2022-12-29T13:14:43.248Z,100257.25
2022-12-29T13:17:18.846Z,100261.75
2022-12-29T13:20:11.200Z,100267.03
2022-12-29T13:22:55.250Z,100277.50
2022-12-29T13:25:29.193Z,100269.75
2022-12-29T13:28:07.675Z,100265.75
2022-12-29T13:30:50.075Z,100263.28
2022-12-29T13:33:31.009Z,100273.59
2022-12-29T13:36:11.066Z,100282.91
2022-12-29T13:38:44.222Z,100285.59
2022-12-29T13:41:18.025Z,100283.00
2022-12-29T13:43:47.939Z,100283.22
2022-12-29T13:46:19.417Z,100283.13
2022-12-29T13:48:54.115Z,100297.28
2022-12-29T13:51:27.660Z,100291.41
2022-12-29T13:54:19.776Z,100296.69
2022-12-29T13:57:08.430Z,100287.25
2022-12-29T13:59:42.039Z,100297.81
2022-12-29T14:02:47.481Z,100291.03
2022-12-29T14:05:23.303Z,100293.53
2022-12-29T14:08:16.818Z,100283.25
2022-12-29T14:10:52.384Z,100305.88
2022-12-29T14:13:27.527Z,100305.88
2022-12-29T14:15:58.937Z,100312.81
2022-12-29T14:18:29.243Z,100303.38
2022-12-29T14:21:14.641Z,100312.06
2022-12-29T14:23:44.369Z,100300.84
2022-12-29T14:26:33.895Z,100302.59
2022-12-29T14:29:24.954Z,100310.38
2022-12-29T14:31:54.719Z,100317.41
2022-12-29T14:34:23.039Z,100317.25
2022-12-29T14:36:57.495Z,100309.47
2022-12-29T14:39:39.405Z,100312.06
2022-12-29T14:42:20.106Z,100321.63
2022-12-29T14:44:52.626Z,100321.69
2022-12-29T14:47:25.036Z,100324.44
2022-12-29T14:49:52.432Z,100315.13
2022-12-29T14:52:26.883Z,100320.31
2022-12-29T14:55:13.150Z,100310.81
2022-12-29T14:57:45.417Z,100317.94
2022-12-29T15:00:26.488Z,100309.31
2022-12-29T15:03:23.663Z,100330.06
2022-12-29T15:05:53.883Z,100325.00
2022-12-29T15:08:31.014Z,100337.09
2022-12-29T15:11:03.299Z,100339.69
2022-12-29T15:13:39.448Z,100335.25
2022-12-29T15:16:21.391Z,100337.16
2022-12-29T15:18:47.993Z,100345.66
2022-12-29T15:21:16.607Z,100349.28
2022-12-29T15:23:46.625Z,100338.16
2022-12-29T15:26:22.000Z,100341.75
2022-12-29T15:28:51.540Z,100347.06
2022-12-29T15:31:26.377Z,100341.78
2022-12-29T15:34:10.933Z,100346.38
2022-12-29T15:36:40.983Z,100336.00
2022-12-29T15:39:31.189Z,100347.28
2022-12-29T15:42:05.331Z,100348.19
2022-12-29T15:44:39.342Z,100348.25
2022-12-29T15:47:15.288Z,100363.16
2022-12-29T15:49:44.760Z,100362.25
2022-12-29T15:52:11.788Z,100368.25
2022-12-29T15:54:39.029Z,100375.28
2022-12-29T15:57:26.943Z,100370.88
2022-12-29T15:59:54.983Z,100376.25
2022-12-29T16:02:24.390Z,100388.47
2022-12-29T16:05:19.005Z,100385.09
2022-12-29T16:07:41.933Z,100393.78
2022-12-29T16:10:26.846Z,100399.31
2022-12-29T16:12:53.798Z,100393.44
2022-12-29T16:15:20.605Z,100392.81
2022-12-29T16:17:51.918Z,100379.84
2022-12-29T16:20:22.603Z,100387.06
2022-12-29T16:22:52.827Z,100399.25
2022-12-29T16:25:30.154Z,100390.00
2022-12-29T16:27:56.819Z,100389.06
2022-12-29T16:30:33.473Z,100390.06
2022-12-29T16:33:02.803Z,100384.81
2022-12-29T16:35:46.973Z,100391.66
2022-12-29T16:38:16.596Z,100388.16
2022-12-29T16:40:56.746Z,100379.53
2022-12-29T16:43:31.335Z,100386.41
2022-12-29T16:46:03.882Z,100381.19
2022-12-29T16:48:37.311Z,100386.47
2022-12-29T16:51:15.076Z,100402.88
2022-12-29T16:53:48.136Z,100436.66
2022-12-29T16:56:18.109Z,100460.78
2022-12-29T16:59:15.224Z,100458.09
2022-12-29T17:01:42.222Z,100467.28
2022-12-29T17:04:11.379Z,100462.59
2022-12-29T17:06:38.286Z,100480.66
2022-12-29T17:09:27.761Z,100488.19
2022-12-29T17:12:08.556Z,100488.69
2022-12-29T17:14:42.693Z,100497.59
2022-12-29T17:17:14.864Z,100497.75
2022-12-29T17:19:45.615Z,100499.88
2022-12-29T17:22:27.741Z,100510.25
2022-12-29T17:24:56.093Z,100497.53
2022-12-29T17:27:27.142Z,100487.09
2022-12-29T17:29:57.344Z,100487.94
2022-12-29T17:32:24.083Z,100496.75
2022-12-29T17:34:50.623Z,100502.84
2022-12-29T17:37:33.152Z,100514.19
2022-12-29T17:40:00.038Z,100522.19
2022-12-29T17:42:26.943Z,100527.38
2022-12-29T17:44:53.597Z,100523.88
2022-12-29T17:47:20.269Z,100516.91
2022-12-29T17:49:46.880Z,100508.31
2022-12-29T17:52:15.585Z,100509.31
2022-12-29T17:54:47.535Z,100503.13
2022-12-29T17:57:21.011Z,100510.13
2022-12-29T17:59:47.661Z,100505.03
2022-12-29T18:02:31.409Z,100517.13
2022-12-29T18:04:59.110Z,100517.06
2022-12-29T18:07:35.657Z,100514.47
2022-12-29T18:10:03.281Z,100517.06
2022-12-29T18:12:40.803Z,100514.72
2022-12-29T18:15:16.492Z,100524.19
2022-12-29T18:17:43.008Z,100537.31
2022-12-29T18:20:17.725Z,100538.88
2022-12-29T18:22:44.294Z,100532.84
2022-12-29T18:25:24.028Z,100538.38
2022-12-29T18:27:50.781Z,100539.47
2022-12-29T18:30:18.483Z,100535.22
2022-12-29T18:32:45.045Z,100547.38
2022-12-29T18:35:22.987Z,100549.13
2022-12-29T18:37:51.699Z,100541.38
2022-12-29T18:40:19.603Z,100547.50
2022-12-29T18:42:46.530Z,100555.28
2022-12-29T18:45:23.373Z,100550.16
2022-12-29T18:47:50.377Z,100538.06
2022-12-29T18:50:17.664Z,100543.19
2022-12-29T18:52:45.836Z,100543.13
2022-12-29T18:55:14.888Z,100541.38
2022-12-29T18:57:41.476Z,100550.81
2022-12-29T19:00:09.436Z,100557.72
2022-12-29T19:02:36.546Z,100560.22
2022-12-29T19:05:08.445Z,100560.28
2022-12-29T19:07:35.352Z,100559.38
2022-12-29T19:10:01.947Z,100566.25
2022-12-29T19:12:28.734Z,100566.34
2022-12-29T19:15:02.339Z,100563.94
2022-12-29T19:17:28.824Z,100560.50
2022-12-29T19:19:55.338Z,100573.44
2022-12-29T19:22:21.889Z,100568.25
2022-12-29T19:24:48.387Z,100569.16
2022-12-29T19:27:17.086Z,100572.53
2022-12-29T19:29:43.587Z,100581.97
2022-12-29T19:32:10.157Z,100575.13
2022-12-29T19:34:36.665Z,100585.41
2022-12-29T19:37:03.624Z,100576.69
2022-12-29T19:39:30.108Z,100588.88
2022-12-29T19:42:01.942Z,100588.75
2022-12-29T19:44:31.840Z,100588.75
2022-12-29T19:46:58.389Z,100583.59
2022-12-29T19:49:24.913Z,100592.31
2022-12-29T19:51:51.443Z,100585.41
2022-12-29T19:54:18.007Z,100597.47
2022-12-29T19:56:44.572Z,100597.47
2022-12-29T19:59:11.309Z,100609.50
2022-12-29T20:01:37.950Z,100612.16
2022-12-29T20:04:04.539Z,100613.00
2022-12-29T20:06:31.121Z,100619.97
2022-12-29T20:08:57.659Z,100609.63
2022-12-29T20:11:24.247Z,100625.03
2022-12-29T20:13:50.795Z,100614.03
2022-12-29T20:16:19.682Z,100624.25
2022-12-29T20:18:47.403Z,100619.22
2022-12-29T20:21:17.344Z,100627.09
2022-12-29T20:23:45.138Z,100635.75
2022-12-29T20:26:24.010Z,100647.72
2022-12-29T20:28:51.941Z,100646.88
2022-12-29T20:31:26.301Z,100639.94
2022-12-29T20:33:53.296Z,100645.19
2022-12-29T20:36:23.966Z,100650.25
2022-12-29T20:38:51.926Z,100645.25
2022-12-29T20:41:19.671Z,100642.53
2022-12-29T20:43:46.363Z,100653.84
2022-12-29T20:46:19.526Z,100647.78
2022-12-29T20:48:47.114Z,100647.91
2022-12-29T20:51:13.625Z,100660.75
2022-12-29T20:53:40.658Z,100664.25
2022-12-29T20:56:12.964Z,100667.69
2022-12-29T20:59:00.257Z,100670.28
2022-12-29T21:01:26.785Z,100672.13
2022-12-29T21:03:53.835Z,100673.88
2022-12-29T21:06:22.974Z,100674.78
2022-12-29T21:08:50.944Z,100674.72
2022-12-29T21:11:18.341Z,100664.38
2022-12-29T21:13:45.230Z,100668.00
2022-12-29T21:16:14.105Z,100675.81
2022-12-29T21:18:40.967Z,100682.72
2022-12-29T21:21:13.430Z,100675.03
2022-12-29T21:23:43.375Z,100686.28
2022-12-29T21:26:11.089Z,100678.53
2022-12-29T21:28:39.514Z,100681.22
2022-12-29T21:31:35.812Z,100677.72
2022-12-29T21:34:04.402Z,100673.41
2022-12-29T21:36:31.530Z,100669.97
2022-12-29T21:39:00.865Z,100679.50
2022-12-29T21:41:27.457Z,100682.19
2022-12-29T21:44:13.073Z,100688.16
2022-12-29T21:46:41.104Z,100685.56
2022-12-29T21:49:08.142Z,100684.78
2022-12-29T21:51:50.092Z,100685.69
2022-12-29T21:54:42.349Z,100682.13
2022-12-29T21:57:10.710Z,100679.72
2022-12-29T21:59:55.868Z,100684.03
2022-12-29T22:02:48.364Z,100678.88
2022-12-29T22:05:34.535Z,100686.66
2022-12-29T22:08:21.103Z,100695.31
2022-12-29T22:11:07.104Z,100688.38
2022-12-29T22:13:43.361Z,100693.50
2022-12-29T22:16:21.956Z,100701.38
2022-12-29T22:18:49.167Z,100696.25
2022-12-29T22:21:15.859Z,100712.66
2022-12-29T22:23:45.178Z,100712.59
2022-12-29T22:26:14.223Z,100708.28
2022-12-29T22:28:43.383Z,100710.97
2022-12-29T22:31:30.594Z,100718.59
2022-12-29T22:33:59.523Z,100727.31
2022-12-29T22:36:27.396Z,100716.97
2022-12-29T22:38:57.185Z,100730.75
2022-12-29T22:41:24.200Z,100734.00
2022-12-29T22:43:51.129Z,100726.31
2022-12-29T22:46:17.901Z,100732.31
2022-12-29T22:48:44.466Z,100734.91
2022-12-29T22:51:11.123Z,100739.41
2022-12-29T22:53:37.638Z,100743.78
2022-12-29T22:56:10.019Z,100743.78
2022-12-29T22:58:44.817Z,100755.03
2022-12-29T23:01:14.893Z,100757.50
2022-12-29T23:03:42.650Z,100756.59
2022-12-29T23:06:12.824Z,100760.97
2022-12-29T23:08:40.204Z,100766.16
2022-12-29T23:11:15.911Z,100763.63
2022-12-29T23:13:46.314Z,100768.88
2022-12-29T23:16:13.912Z,100780.00
2022-12-29T23:18:41.196Z,100786.91
2022-12-29T23:21:07.937Z,100798.94
2022-12-29T23:23:52.854Z,100812.66
2022-12-29T23:26:21.900Z,100808.47
2022-12-29T23:28:48.832Z,100828.16
2022-12-29T23:31:22.081Z,100817.91
2022-12-29T23:33:48.774Z,100829.06
2022-12-29T23:36:16.742Z,100834.31
2022-12-29T23:38:43.718Z,100835.97
2022-12-29T23:41:11.179Z,100847.97
2022-12-29T23:43:37.729Z,100833.44
2022-12-29T23:46:14.119Z,100842.91
2022-12-29T23:48:40.843Z,100845.44
2022-12-29T23:51:10.261Z,100854.09
2022-12-29T23:53:39.148Z,100854.16
2022-12-29T23:56:07.763Z,100858.50
2022-12-29T23:58:35.874Z,100869.66
